createdAt,value
2018-12-08T00:02:01.439Z,10.40
2018-12-08T00:04:29.703Z,10.30
2018-12-08T00:06:58.087Z,10.40
2018-12-08T00:09:26.370Z,10.30
2018-12-08T00:11:54.679Z,10.30
2018-12-08T00:14:23.033Z,10.30
2018-12-08T00:16:51.590Z,10.30
2018-12-08T00:19:19.938Z,10.20
2018-12-08T00:21:48.216Z,10.10
2018-12-08T00:24:16.532Z,10.00
2018-12-08T00:26:44.964Z,9.90
2018-12-08T00:29:13.273Z,9.90
2018-12-08T00:31:45.235Z,9.90
2018-12-08T00:34:13.503Z,9.80
2018-12-08T00:36:42.045Z,9.90
2018-12-08T00:39:10.489Z,9.70
2018-12-08T00:41:38.822Z,9.50
2018-12-08T00:44:07.105Z,9.40
2018-12-08T00:46:35.408Z,9.30
2018-12-08T00:49:03.856Z,8.90
2018-12-08T00:51:32.174Z,8.70
2018-12-08T00:54:05.859Z,8.50
2018-12-08T00:56:34.341Z,8.40
2018-12-08T00:59:02.612Z,8.30
2018-12-08T01:01:30.970Z,8.30
2018-12-08T01:03:59.292Z,8.20
2018-12-08T01:06:27.883Z,8.20
2018-12-08T01:08:56.380Z,8.30
2018-12-08T01:11:24.799Z,8.20
2018-12-08T01:13:53.247Z,8.10
2018-12-08T01:16:21.508Z,8.30
2018-12-08T01:18:49.732Z,8.20
2018-12-08T01:21:18.165Z,8.30
2018-12-08T01:23:46.411Z,8.20
2018-12-08T01:26:14.606Z,8.20
2018-12-08T01:28:42.967Z,8.30
2018-12-08T01:31:11.390Z,8.20
2018-12-08T01:33:39.712Z,8.30
2018-12-08T01:36:08.091Z,8.40
2018-12-08T01:38:36.475Z,8.50
2018-12-08T01:41:04.891Z,8.60
2018-12-08T01:43:33.165Z,8.50
2018-12-08T01:46:01.679Z,8.60
2018-12-08T01:48:29.945Z,8.70
2018-12-08T01:50:58.230Z,8.60
2018-12-08T01:53:26.671Z,8.70
2018-12-08T01:55:55.451Z,8.80
2018-12-08T01:58:23.988Z,8.60
2018-12-08T02:00:52.364Z,8.60
2018-12-08T02:03:20.747Z,8.60
2018-12-08T02:05:49.235Z,8.60
2018-12-08T02:08:17.492Z,8.60
2018-12-08T02:10:45.732Z,8.70
2018-12-08T02:13:14.060Z,8.70
2018-12-08T02:15:42.375Z,8.80
2018-12-08T02:18:10.671Z,8.70
2018-12-08T02:20:39.035Z,8.70
2018-12-08T02:23:07.260Z,8.60
2018-12-08T02:25:35.750Z,8.70
2018-12-08T02:28:04.014Z,8.70
2018-12-08T02:30:32.298Z,8.70
2018-12-08T02:33:00.590Z,8.70
2018-12-08T02:35:28.912Z,8.50
2018-12-08T02:37:57.679Z,8.50
2018-12-08T02:40:25.918Z,8.50
2018-12-08T02:42:54.160Z,8.60
2018-12-08T02:45:22.432Z,8.60
2018-12-08T02:47:50.808Z,8.60
2018-12-08T02:50:19.201Z,8.50
2018-12-08T02:52:47.466Z,8.40
2018-12-08T02:55:15.820Z,8.50
2018-12-08T02:57:44.141Z,8.40
2018-12-08T03:00:12.589Z,8.60
2018-12-08T03:02:41.017Z,8.60
2018-12-08T03:05:09.335Z,8.70
2018-12-08T03:07:37.667Z,8.70
2018-12-08T03:10:06.281Z,8.60
2018-12-08T03:12:34.506Z,8.60
2018-12-08T03:15:02.831Z,8.40
2018-12-08T03:17:31.227Z,8.40
2018-12-08T03:19:59.587Z,8.50
2018-12-08T03:22:28.015Z,8.50
2018-12-08T03:24:56.289Z,8.60
2018-12-08T03:27:24.502Z,8.60
2018-12-08T03:29:52.803Z,8.80
2018-12-08T03:32:21.072Z,8.70
2018-12-08T03:34:49.476Z,8.70
2018-12-08T03:37:17.795Z,8.60
2018-12-08T03:39:46.120Z,8.60
2018-12-08T03:42:14.394Z,8.50
2018-12-08T03:44:42.674Z,8.50
2018-12-08T03:47:10.943Z,8.50
2018-12-08T03:49:39.176Z,8.60
2018-12-08T03:52:07.656Z,8.40
2018-12-08T03:54:36.067Z,8.40
2018-12-08T03:57:04.405Z,8.40
2018-12-08T03:59:32.715Z,8.40
2018-12-08T04:02:01.124Z,8.30
2018-12-08T04:04:29.512Z,8.40
2018-12-08T04:06:57.898Z,8.40
2018-12-08T04:09:26.251Z,8.40
2018-12-08T04:11:54.512Z,8.40
2018-12-08T04:14:22.868Z,8.40
2018-12-08T04:16:51.265Z,8.40
2018-12-08T04:19:19.550Z,8.40
2018-12-08T04:21:47.919Z,8.20
2018-12-08T04:24:16.226Z,8.10
2018-12-08T04:26:44.641Z,8.20
2018-12-08T04:29:12.941Z,8.20
2018-12-08T04:31:41.314Z,8.30
2018-12-08T04:34:09.718Z,8.30
2018-12-08T04:36:37.936Z,8.30
2018-12-08T04:39:07.344Z,8.10
2018-12-08T04:41:35.621Z,8.10
2018-12-08T04:44:04.134Z,8.20
2018-12-08T04:46:32.399Z,8.30
2018-12-08T04:49:00.645Z,8.30
2018-12-08T04:51:29.043Z,8.30
2018-12-08T04:53:57.285Z,8.20
2018-12-08T04:56:25.682Z,8.10
2018-12-08T04:58:53.982Z,8.10
2018-12-08T05:01:22.143Z,8.20
2018-12-08T05:03:50.605Z,8.20
2018-12-08T05:06:19.035Z,8.20
2018-12-08T05:08:47.382Z,8.10
2018-12-08T05:11:15.613Z,8.10
2018-12-08T05:13:43.980Z,8.00
2018-12-08T05:16:12.217Z,7.80
2018-12-08T05:18:40.561Z,7.80
2018-12-08T05:21:08.905Z,7.80
2018-12-08T05:23:37.290Z,7.60
2018-12-08T05:26:05.770Z,7.70
2018-12-08T05:28:34.098Z,7.80
2018-12-08T05:31:02.313Z,7.80
2018-12-08T05:33:30.733Z,7.90
2018-12-08T05:35:58.983Z,7.80
2018-12-08T05:38:27.399Z,7.80
2018-12-08T05:40:55.614Z,7.80
2018-12-08T05:43:23.955Z,7.80
2018-12-08T05:45:52.332Z,7.80
2018-12-08T05:48:20.645Z,7.70
2018-12-08T05:50:48.902Z,7.70
2018-12-08T05:53:17.182Z,7.70
2018-12-08T05:55:45.388Z,7.60
2018-12-08T05:58:13.716Z,7.50
2018-12-08T06:00:42.044Z,7.60
2018-12-08T06:03:10.335Z,7.60
2018-12-08T06:05:38.640Z,7.60
2018-12-08T06:08:06.950Z,7.60
2018-12-08T06:10:35.399Z,7.50
2018-12-08T06:13:03.725Z,7.50
2018-12-08T06:15:31.976Z,7.50
2018-12-08T06:18:00.305Z,7.60
2018-12-08T06:20:28.521Z,7.60
2018-12-08T06:22:56.813Z,7.70
2018-12-08T06:25:29.859Z,7.90
2018-12-08T06:28:05.246Z,7.90
2018-12-08T06:30:33.505Z,8.10
2018-12-08T06:33:01.719Z,8.10
2018-12-08T06:35:30.068Z,8.00
2018-12-08T06:37:58.298Z,8.00
2018-12-08T06:40:29.373Z,7.90
2018-12-08T06:42:57.084Z,7.80
2018-12-08T06:45:25.409Z,7.70
2018-12-08T06:47:53.725Z,7.60
2018-12-08T06:50:21.915Z,7.60
2018-12-08T06:52:50.319Z,7.50
2018-12-08T06:55:18.616Z,7.50
2018-12-08T06:57:46.818Z,7.40
2018-12-08T07:00:15.131Z,7.40
2018-12-08T07:02:43.474Z,7.40
2018-12-08T07:05:11.840Z,7.50
2018-12-08T07:07:40.155Z,7.40
2018-12-08T07:10:08.494Z,7.40
2018-12-08T07:12:36.830Z,7.40
2018-12-08T07:15:06.196Z,7.40
2018-12-08T07:17:34.715Z,7.50
2018-12-08T07:20:03.192Z,7.50
2018-12-08T07:22:31.430Z,7.70
2018-12-08T07:24:59.785Z,7.70
2018-12-08T07:27:28.096Z,7.70
2018-12-08T07:29:56.443Z,7.80
2018-12-08T07:32:24.730Z,7.80
2018-12-08T07:34:53.077Z,7.80
2018-12-08T07:37:21.375Z,7.80
2018-12-08T07:39:49.866Z,7.70
2018-12-08T07:42:18.180Z,7.60
2018-12-08T07:44:46.505Z,7.60
2018-12-08T07:47:14.885Z,7.60
2018-12-08T07:49:43.280Z,7.50
2018-12-08T07:52:11.712Z,7.50
2018-12-08T07:54:40.058Z,7.60
2018-12-08T07:57:08.433Z,7.60
2018-12-08T07:59:36.814Z,7.70
2018-12-08T08:02:05.597Z,7.60
2018-12-08T08:04:33.982Z,7.60
2018-12-08T08:07:02.185Z,7.50
2018-12-08T08:09:30.524Z,7.60
2018-12-08T08:11:58.775Z,7.60
2018-12-08T08:14:27.006Z,7.60
2018-12-08T08:16:55.302Z,7.80
2018-12-08T08:19:23.515Z,7.80
2018-12-08T08:21:51.891Z,7.90
2018-12-08T08:24:20.213Z,8.00
2018-12-08T08:26:48.523Z,7.90
2018-12-08T08:29:17.042Z,8.00
2018-12-08T08:31:45.654Z,7.90
2018-12-08T08:34:13.988Z,7.90
2018-12-08T08:36:42.227Z,7.90
2018-12-08T08:39:10.670Z,7.80
2018-12-08T08:41:39.895Z,7.70
2018-12-08T08:44:08.446Z,7.70
2018-12-08T08:46:36.855Z,7.60
2018-12-08T08:49:05.300Z,7.60
2018-12-08T08:51:33.595Z,7.70
2018-12-08T08:54:02.138Z,7.70
2018-12-08T08:56:30.326Z,7.70
2018-12-08T08:58:58.634Z,7.70
2018-12-08T09:01:26.970Z,7.80
2018-12-08T09:03:55.276Z,7.70
2018-12-08T09:06:23.733Z,7.70
2018-12-08T09:08:52.084Z,7.80
2018-12-08T09:11:20.356Z,7.70
2018-12-08T09:31:07.012Z,8.20
2018-12-08T09:33:35.335Z,8.40
2018-12-08T09:36:04.654Z,8.40
2018-12-08T09:38:33.102Z,8.40
2018-12-08T09:41:01.638Z,8.40
2018-12-08T09:43:30.766Z,8.50
2018-12-08T09:45:59.067Z,8.50
2018-12-08T09:48:27.486Z,8.40
2018-12-08T09:50:55.910Z,8.50
2018-12-08T09:53:24.204Z,8.50
2018-12-08T09:55:52.597Z,8.40
2018-12-08T09:58:20.892Z,8.40
2018-12-08T10:00:50.415Z,8.40
2018-12-08T10:03:18.670Z,8.50
2018-12-08T10:05:46.961Z,8.90
2018-12-08T10:08:15.226Z,9.40
2018-12-08T10:10:43.493Z,10.20
2018-12-08T10:13:11.800Z,10.20
2018-12-08T10:15:40.174Z,10.10
2018-12-08T10:18:08.443Z,9.80
2018-12-08T10:20:36.833Z,9.90
2018-12-08T10:23:05.502Z,9.80
2018-12-08T10:25:33.905Z,9.60
2018-12-08T10:28:02.114Z,9.40
2018-12-08T10:30:30.421Z,9.10
2018-12-08T10:32:58.805Z,9.00
2018-12-08T10:35:27.092Z,9.00
2018-12-08T10:37:55.688Z,8.90
2018-12-08T10:40:24.036Z,9.00
2018-12-08T10:42:53.163Z,9.00
2018-12-08T10:45:21.641Z,9.00
2018-12-08T10:47:50.005Z,9.00
2018-12-08T10:50:18.388Z,9.00
2018-12-08T10:52:47.691Z,9.20
2018-12-08T10:55:15.959Z,9.10
2018-12-08T10:57:44.806Z,9.20
2018-12-08T11:00:18.570Z,9.10
2018-12-08T11:02:54.007Z,9.10
2018-12-08T11:05:22.667Z,9.10
2018-12-08T11:07:51.098Z,9.00
2018-12-08T11:10:19.476Z,9.00
2018-12-08T11:12:47.855Z,8.90
2018-12-08T11:15:16.283Z,9.00
2018-12-08T11:17:44.854Z,8.90
2018-12-08T11:20:13.210Z,9.00
2018-12-08T11:22:41.517Z,8.90
2018-12-08T11:25:09.817Z,9.00
2018-12-08T11:27:38.175Z,9.00
2018-12-08T11:30:06.598Z,9.10
2018-12-08T11:32:34.976Z,9.20
2018-12-08T11:35:03.406Z,9.40
2018-12-08T11:37:31.793Z,9.30
2018-12-08T11:40:00.121Z,9.30
2018-12-08T11:42:28.782Z,9.40
2018-12-08T11:44:57.213Z,9.40
2018-12-08T11:47:25.657Z,9.20
2018-12-08T11:49:54.099Z,9.30
2018-12-08T11:52:22.768Z,9.30
2018-12-08T11:54:51.282Z,9.30
2018-12-08T11:57:19.675Z,9.40
2018-12-08T11:59:48.056Z,9.40
2018-12-08T12:02:16.876Z,9.30
2018-12-08T12:04:45.589Z,9.40
2018-12-08T12:07:14.261Z,9.60
2018-12-08T12:09:42.848Z,9.60
2018-12-08T12:12:11.384Z,9.50
2018-12-08T12:16:13.272Z,9.50
2018-12-08T12:18:41.654Z,9.40
2018-12-08T12:21:10.125Z,9.40
2018-12-08T12:23:38.393Z,9.40
2018-12-08T12:26:06.863Z,9.60
2018-12-08T12:28:35.390Z,9.60
2018-12-08T12:31:03.823Z,9.70
2018-12-08T12:33:32.255Z,9.50
2018-12-08T12:36:00.764Z,9.60
2018-12-08T12:38:29.302Z,9.60
2018-12-08T12:40:58.367Z,9.60
2018-12-08T12:43:26.700Z,9.70
2018-12-08T12:45:56.439Z,9.80
2018-12-08T12:48:24.802Z,9.70
2018-12-08T12:50:53.465Z,9.80
2018-12-08T12:53:22.995Z,9.80
2018-12-08T12:55:51.351Z,9.70
2018-12-08T12:58:19.992Z,9.50
2018-12-08T13:00:48.450Z,9.60
2018-12-08T13:03:16.984Z,9.50
2018-12-08T13:05:45.530Z,9.70
2018-12-08T13:08:13.926Z,9.60
2018-12-08T13:10:42.270Z,9.70
2018-12-08T13:13:10.551Z,9.70
2018-12-08T13:15:39.086Z,9.70
2018-12-08T13:18:07.501Z,9.70
2018-12-08T13:20:35.876Z,9.70
2018-12-08T13:23:04.352Z,9.80
2018-12-08T13:25:32.677Z,9.80
2018-12-08T13:28:01.355Z,9.90
2018-12-08T13:30:29.716Z,9.80
2018-12-08T13:32:58.189Z,9.90
2018-12-08T13:35:53.353Z,9.80
2018-12-08T13:38:23.382Z,9.70
2018-12-08T13:40:51.873Z,9.80
2018-12-08T13:43:20.281Z,9.80
2018-12-08T13:45:48.612Z,9.90
2018-12-08T13:48:18.800Z,9.80
2018-12-08T13:50:47.806Z,9.80
2018-12-08T13:53:16.323Z,9.70
2018-12-08T13:55:44.861Z,9.70
2018-12-08T13:58:13.296Z,9.60
2018-12-08T14:00:41.675Z,9.60
2018-12-08T14:03:10.013Z,9.50
2018-12-08T14:05:39.100Z,8.90
2018-12-08T14:08:07.540Z,8.60
2018-12-08T14:10:35.953Z,8.30
2018-12-08T14:13:04.342Z,8.00
2018-12-08T14:15:32.658Z,8.10
2018-12-08T14:18:01.047Z,8.20
2018-12-08T14:20:31.747Z,8.20
2018-12-08T14:23:00.310Z,8.20
2018-12-08T14:25:28.801Z,8.20
2018-12-08T14:27:57.180Z,8.30
2018-12-08T14:30:25.458Z,8.30
2018-12-08T14:32:53.837Z,8.30
2018-12-08T14:35:22.153Z,8.30
2018-12-08T14:37:51.053Z,8.30
2018-12-08T14:40:19.536Z,8.20
2018-12-08T14:42:47.869Z,8.10
2018-12-08T14:45:16.216Z,8.10
2018-12-08T14:47:44.646Z,8.20
2018-12-08T14:50:13.132Z,8.10
2018-12-08T14:52:41.545Z,8.10
2018-12-08T14:55:10.346Z,8.00
2018-12-08T14:57:38.613Z,8.20
2018-12-08T15:00:12.046Z,8.00
2018-12-08T15:02:40.801Z,8.10
2018-12-08T15:05:10.921Z,8.00
2018-12-08T15:07:39.416Z,8.10
2018-12-08T15:10:11.507Z,8.20
2018-12-08T15:12:39.839Z,8.20
2018-12-08T15:15:09.690Z,8.20
2018-12-08T15:17:38.257Z,8.00
2018-12-08T15:20:08.489Z,8.10
2018-12-08T15:22:36.871Z,8.10
2018-12-08T15:25:07.134Z,8.20
2018-12-08T15:27:35.390Z,8.30
2018-12-08T15:30:04.304Z,8.20
2018-12-08T15:32:32.927Z,8.30
2018-12-08T15:35:01.351Z,8.30
2018-12-08T15:37:29.738Z,8.20
2018-12-08T15:39:58.048Z,8.20
2018-12-08T15:42:28.907Z,8.20
2018-12-08T15:44:57.322Z,8.20
2018-12-08T15:47:28.137Z,8.10
2018-12-08T15:49:56.707Z,8.10
2018-12-08T15:52:26.164Z,8.10
2018-12-08T15:55:00.171Z,8.20
2018-12-08T15:57:29.643Z,8.10
2018-12-08T15:59:58.189Z,8.20
2018-12-08T16:02:26.758Z,8.20
2018-12-08T16:04:55.204Z,8.10
2018-12-08T16:07:23.777Z,8.30
2018-12-08T16:09:54.227Z,8.30
2018-12-08T16:12:22.749Z,8.20
2018-12-08T16:14:51.517Z,8.30
2018-12-08T16:17:20.141Z,8.30
2018-12-08T16:19:48.794Z,8.50
2018-12-08T16:22:17.149Z,8.40
2018-12-08T16:24:45.636Z,8.40
2018-12-08T16:27:14.114Z,8.50
2018-12-08T16:29:42.537Z,8.50
2018-12-08T16:32:11.130Z,8.50
2018-12-08T16:34:39.804Z,8.60
2018-12-08T16:37:08.315Z,8.60
2018-12-08T16:39:36.819Z,8.60
2018-12-08T16:42:05.164Z,8.70
2018-12-08T16:44:33.968Z,8.60
2018-12-08T16:47:03.572Z,8.80
2018-12-08T16:49:31.916Z,8.70
2018-12-08T16:52:00.445Z,8.70
2018-12-08T16:54:29.673Z,8.80
2018-12-08T16:56:58.068Z,9.00
2018-12-08T16:59:26.822Z,9.00
2018-12-08T17:01:55.288Z,8.90
2018-12-08T17:04:24.033Z,8.90
2018-12-08T17:06:52.406Z,8.80
2018-12-08T17:09:20.956Z,8.80
2018-12-08T17:11:49.459Z,8.90
2018-12-08T17:14:18.517Z,9.00
2018-12-08T17:16:47.285Z,9.00
2018-12-08T17:19:15.763Z,9.00
2018-12-08T17:21:44.087Z,8.90
2018-12-08T17:24:12.720Z,8.90
2018-12-08T17:26:41.307Z,9.00
2018-12-08T17:29:09.730Z,9.10
2018-12-08T17:31:38.065Z,9.10
2018-12-08T17:34:06.452Z,9.10
2018-12-08T17:36:34.682Z,9.20
2018-12-08T17:39:03.623Z,9.10
2018-12-08T17:41:32.022Z,9.20
2018-12-08T17:44:00.339Z,9.10
2018-12-08T17:46:28.889Z,9.10
2018-12-08T17:48:57.248Z,9.10
2018-12-08T17:51:25.813Z,9.00
2018-12-08T17:53:54.058Z,9.10
2018-12-08T17:56:22.711Z,9.10
2018-12-08T17:58:51.084Z,9.10
2018-12-08T18:01:19.565Z,9.30
2018-12-08T18:03:47.988Z,9.20
2018-12-08T18:06:16.378Z,9.30
2018-12-08T18:08:44.739Z,9.30
2018-12-08T18:11:13.184Z,9.30
2018-12-08T18:13:41.794Z,9.50
2018-12-08T18:16:10.203Z,9.50
2018-12-08T18:18:38.584Z,9.50
2018-12-08T18:21:07.118Z,9.50
2018-12-08T18:23:35.616Z,9.50
2018-12-08T18:26:04.012Z,9.60
2018-12-08T18:28:32.234Z,9.50
2018-12-08T18:31:00.650Z,9.50
2018-12-08T18:33:29.341Z,9.50
2018-12-08T18:35:57.560Z,9.40
2018-12-08T18:38:26.119Z,9.50
2018-12-08T18:40:54.527Z,9.40
2018-12-08T18:43:22.927Z,9.50
2018-12-08T18:45:51.339Z,9.40
2018-12-08T18:48:19.805Z,9.30
2018-12-08T18:50:48.358Z,9.40
2018-12-08T18:53:17.831Z,9.40
2018-12-08T18:55:46.275Z,9.40
2018-12-08T18:58:15.623Z,9.30
2018-12-08T19:00:44.138Z,9.50
2018-12-08T19:09:58.764Z,9.30
2018-12-08T19:12:27.065Z,9.30
2018-12-08T19:14:55.564Z,9.40
2018-12-08T19:17:23.923Z,9.30
2018-12-08T19:19:52.207Z,9.20
2018-12-08T19:22:20.578Z,9.10
2018-12-08T19:24:49.047Z,9.20
2018-12-08T19:27:17.283Z,9.30
2018-12-08T19:29:45.628Z,9.30
2018-12-08T19:32:13.919Z,9.30
2018-12-08T19:34:42.247Z,9.20
2018-12-08T19:37:10.768Z,9.20
2018-12-08T19:39:39.164Z,9.10
2018-12-08T19:42:07.596Z,9.20
2018-12-08T19:44:35.998Z,9.10
2018-12-08T19:47:04.538Z,8.90
2018-12-08T19:49:37.866Z,9.00
2018-12-08T19:52:06.496Z,8.80
2018-12-08T19:54:34.875Z,8.90
2018-12-08T19:57:03.300Z,8.80
2018-12-08T19:59:31.915Z,8.80
2018-12-08T20:02:00.290Z,8.60
2018-12-08T20:04:28.769Z,8.70
2018-12-08T20:06:58.594Z,8.70
2018-12-08T20:09:27.590Z,8.70
2018-12-08T20:11:55.948Z,8.70
2018-12-08T20:14:24.341Z,8.70
2018-12-08T20:16:52.743Z,8.50
2018-12-08T20:19:21.235Z,8.60
2018-12-08T20:21:49.929Z,8.60
2018-12-08T20:24:18.366Z,8.50
2018-12-08T20:26:46.968Z,8.40
2018-12-08T20:29:15.629Z,8.50
2018-12-08T20:31:44.170Z,8.40
2018-12-08T20:34:12.595Z,8.30
2018-12-08T20:36:41.091Z,8.40
2018-12-08T20:39:09.709Z,8.40
2018-12-08T20:41:38.022Z,8.50
2018-12-08T20:44:06.418Z,8.50
2018-12-08T20:46:35.320Z,8.50
2018-12-08T20:49:03.663Z,8.50
2018-12-08T20:51:32.018Z,8.50
2018-12-08T20:54:00.624Z,8.40
2018-12-08T20:56:28.970Z,8.50
2018-12-08T20:58:57.370Z,8.50
2018-12-08T21:01:25.758Z,8.50
2018-12-08T21:03:54.002Z,8.50
2018-12-08T21:06:22.901Z,8.40
2018-12-08T21:08:52.845Z,8.40
2018-12-08T21:11:22.018Z,8.40
2018-12-08T21:13:50.429Z,8.30
2018-12-08T21:16:18.938Z,8.40
2018-12-08T21:18:47.310Z,8.30
2018-12-08T21:21:15.631Z,8.30
2018-12-08T21:23:44.008Z,8.30
2018-12-08T21:26:12.524Z,8.30
2018-12-08T21:28:40.903Z,8.20
2018-12-08T21:31:09.331Z,8.10
2018-12-08T21:33:37.831Z,8.00
2018-12-08T21:37:35.465Z,8.10
2018-12-08T21:40:05.050Z,8.10
2018-12-08T21:42:33.443Z,8.10
2018-12-08T21:45:01.852Z,8.10
2018-12-08T21:47:30.129Z,8.10
2018-12-08T21:49:58.412Z,8.10
2018-12-08T21:52:26.776Z,8.00
2018-12-08T21:54:55.357Z,8.00
2018-12-08T21:57:23.708Z,7.90
2018-12-08T21:59:52.014Z,7.90
2018-12-08T22:02:20.580Z,7.80
2018-12-08T22:04:48.908Z,7.80
2018-12-08T22:07:17.560Z,7.90
2018-12-08T22:09:45.969Z,7.90
2018-12-08T22:12:14.319Z,7.80
2018-12-08T22:14:49.370Z,7.90
2018-12-08T22:19:57.157Z,8.00
2018-12-08T22:22:25.592Z,8.00
2018-12-08T22:24:53.922Z,8.10
2018-12-08T22:27:22.495Z,8.00
2018-12-08T22:29:51.049Z,8.20
2018-12-08T22:32:19.643Z,8.10
2018-12-08T22:34:50.235Z,8.10
2018-12-08T22:37:18.657Z,8.10
2018-12-08T22:39:46.935Z,8.10
2018-12-08T22:42:16.986Z,8.10
2018-12-08T22:44:45.321Z,8.30
2018-12-08T22:47:13.779Z,8.20
2018-12-08T22:49:43.132Z,8.30
2018-12-08T22:52:11.489Z,8.40
2018-12-08T22:54:39.830Z,8.40
2018-12-08T22:57:08.420Z,8.50
2018-12-08T22:59:36.768Z,8.50
2018-12-08T23:02:05.152Z,8.60
2018-12-08T23:04:33.510Z,8.60
2018-12-08T23:07:04.930Z,8.60
2018-12-08T23:09:33.602Z,8.60
2018-12-08T23:12:02.132Z,8.70
2018-12-08T23:14:30.391Z,8.60
2018-12-08T23:16:58.897Z,8.50
2018-12-08T23:19:27.372Z,8.50
2018-12-08T23:21:55.729Z,8.40
2018-12-08T23:24:24.188Z,8.30
2018-12-08T23:26:52.664Z,8.30
2018-12-08T23:29:21.095Z,8.30
2018-12-08T23:31:49.576Z,8.30
2018-12-08T23:34:17.997Z,8.20
2018-12-08T23:36:46.367Z,8.10
2018-12-08T23:39:14.929Z,8.10
2018-12-08T23:41:43.263Z,8.00
2018-12-08T23:44:11.671Z,7.90
2018-12-08T23:46:40.092Z,7.70
2018-12-08T23:49:11.335Z,7.70
2018-12-08T23:51:39.051Z,7.70
2018-12-08T23:54:07.559Z,7.80
2018-12-08T23:56:36.014Z,7.70
2018-12-08T23:59:04.451Z,7.60
